sensor_id;sensor_type;location;lat;lon;timestamp;temperature;humidity
40670;DHT22;26355;45.528;9.234;2023-04-15T00:01:01;15.70;64.30
40670;DHT22;26355;45.528;9.234;2023-04-15T00:03:27;15.70;64.00
40670;DHT22;26355;45.528;9.234;2023-04-15T00:05:53;15.70;63.90
40670;DHT22;26355;45.528;9.234;2023-04-15T00:08:19;15.60;64.30
40670;DHT22;26355;45.528;9.234;2023-04-15T00:10:45;15.50;64.50
40670;DHT22;26355;45.528;9.234;2023-04-15T00:13:11;15.70;64.60
40670;DHT22;26355;45.528;9.234;2023-04-15T00:15:37;15.70;64.50
40670;DHT22;26355;45.528;9.234;2023-04-15T00:18:02;15.70;64.80
40670;DHT22;26355;45.528;9.234;2023-04-15T00:20:28;15.50;64.80
40670;DHT22;26355;45.528;9.234;2023-04-15T00:22:54;15.60;65.10
40670;DHT22;26355;45.528;9.234;2023-04-15T00:25:19;15.60;65.50
40670;DHT22;26355;45.528;9.234;2023-04-15T00:27:45;15.40;66.10
40670;DHT22;26355;45.528;9.234;2023-04-15T00:30:11;15.40;66.50
40670;DHT22;26355;45.528;9.234;2023-04-15T00:32:36;15.30;67.00
40670;DHT22;26355;45.528;9.234;2023-04-15T00:35:02;15.40;67.50
40670;DHT22;26355;45.528;9.234;2023-04-15T00:37:28;15.40;68.00
40670;DHT22;26355;45.528;9.234;2023-04-15T00:39:54;15.40;68.20
40670;DHT22;26355;45.528;9.234;2023-04-15T00:42:20;15.40;68.60
40670;DHT22;26355;45.528;9.234;2023-04-15T00:44:46;15.20;68.80
40670;DHT22;26355;45.528;9.234;2023-04-15T00:47:11;15.70;69.40
40670;DHT22;26355;45.528;9.234;2023-04-15T00:49:37;15.30;70.00
40670;DHT22;26355;45.528;9.234;2023-04-15T00:52:03;15.30;70.60
40670;DHT22;26355;45.528;9.234;2023-04-15T00:54:29;15.10;71.10
40670;DHT22;26355;45.528;9.234;2023-04-15T00:56:54;15.20;71.60
40670;DHT22;26355;45.528;9.234;2023-04-15T00:59:21;15.20;72.00
40670;DHT22;26355;45.528;9.234;2023-04-15T01:01:46;15.10;72.40
40670;DHT22;26355;45.528;9.234;2023-04-15T01:04:12;14.90;73.20
40670;DHT22;26355;45.528;9.234;2023-04-15T01:06:38;14.80;74.10
40670;DHT22;26355;45.528;9.234;2023-04-15T01:09:04;14.80;74.70
40670;DHT22;26355;45.528;9.234;2023-04-15T01:11:31;14.70;75.50
40670;DHT22;26355;45.528;9.234;2023-04-15T01:13:58;14.70;76.00
40670;DHT22;26355;45.528;9.234;2023-04-15T01:16:24;14.70;76.50
40670;DHT22;26355;45.528;9.234;2023-04-15T01:18:51;14.70;77.10
40670;DHT22;26355;45.528;9.234;2023-04-15T01:21:17;14.70;78.20
40670;DHT22;26355;45.528;9.234;2023-04-15T01:23:46;14.60;78.60
40670;DHT22;26355;45.528;9.234;2023-04-15T01:26:13;14.60;78.90
40670;DHT22;26355;45.528;9.234;2023-04-15T01:28:38;14.70;79.20
40670;DHT22;26355;45.528;9.234;2023-04-15T01:31:09;14.70;79.40
40670;DHT22;26355;45.528;9.234;2023-04-15T01:33:36;14.70;80.30
40670;DHT22;26355;45.528;9.234;2023-04-15T01:36:02;14.70;80.60
40670;DHT22;26355;45.528;9.234;2023-04-15T01:38:28;14.70;81.10
40670;DHT22;26355;45.528;9.234;2023-04-15T01:40:55;14.70;81.40
40670;DHT22;26355;45.528;9.234;2023-04-15T01:43:20;14.80;81.60
40670;DHT22;26355;45.528;9.234;2023-04-15T01:45:46;14.70;82.10
40670;DHT22;26355;45.528;9.234;2023-04-15T01:48:12;15.10;82.40
40670;DHT22;26355;45.528;9.234;2023-04-15T01:50:37;14.70;82.80
40670;DHT22;26355;45.528;9.234;2023-04-15T01:53:03;14.60;83.70
40670;DHT22;26355;45.528;9.234;2023-04-15T01:55:29;14.50;84.70
40670;DHT22;26355;45.528;9.234;2023-04-15T01:57:55;14.30;85.30
40670;DHT22;26355;45.528;9.234;2023-04-15T02:00:21;14.40;85.80
40670;DHT22;26355;45.528;9.234;2023-04-15T02:02:47;14.50;86.30
40670;DHT22;26355;45.528;9.234;2023-04-15T02:05:13;14.30;87.00
40670;DHT22;26355;45.528;9.234;2023-04-15T02:07:39;14.20;88.00
40670;DHT22;26355;45.528;9.234;2023-04-15T02:10:04;14.20;89.30
40670;DHT22;26355;45.528;9.234;2023-04-15T02:12:30;14.20;90.00
40670;DHT22;26355;45.528;9.234;2023-04-15T02:14:56;14.10;90.30
40670;DHT22;26355;45.528;9.234;2023-04-15T02:17:21;14.20;90.40
40670;DHT22;26355;45.528;9.234;2023-04-15T02:19:47;14.20;90.70
40670;DHT22;26355;45.528;9.234;2023-04-15T02:22:13;14.20;91.00
40670;DHT22;26355;45.528;9.234;2023-04-15T02:24:43;14.30;91.00
40670;DHT22;26355;45.528;9.234;2023-04-15T02:27:08;14.40;91.10
40670;DHT22;26355;45.528;9.234;2023-04-15T02:29:34;14.20;91.20
40670;DHT22;26355;45.528;9.234;2023-04-15T02:32:00;14.20;91.50
40670;DHT22;26355;45.528;9.234;2023-04-15T02:34:26;14.60;91.70
40670;DHT22;26355;45.528;9.234;2023-04-15T02:36:51;14.10;92.20
40670;DHT22;26355;45.528;9.234;2023-04-15T02:39:21;14.00;92.70
40670;DHT22;26355;45.528;9.234;2023-04-15T02:41:47;13.80;93.60
40670;DHT22;26355;45.528;9.234;2023-04-15T02:44:16;13.80;94.30
40670;DHT22;26355;45.528;9.234;2023-04-15T02:46:45;13.80;94.80
40670;DHT22;26355;45.528;9.234;2023-04-15T02:49:17;13.90;95.80
40670;DHT22;26355;45.528;9.234;2023-04-15T02:51:43;13.80;96.30
40670;DHT22;26355;45.528;9.234;2023-04-15T02:54:12;13.60;97.10
40670;DHT22;26355;45.528;9.234;2023-04-15T02:56:37;13.60;97.30
40670;DHT22;26355;45.528;9.234;2023-04-15T02:59:03;13.70;97.90
40670;DHT22;26355;45.528;9.234;2023-04-15T03:01:29;13.40;98.90
40670;DHT22;26355;45.528;9.234;2023-04-15T03:03:54;13.50;99.00
40670;DHT22;26355;45.528;9.234;2023-04-15T03:06:20;13.40;99.40
40670;DHT22;26355;45.528;9.234;2023-04-15T03:08:46;13.40;99.90
40670;DHT22;26355;45.528;9.234;2023-04-15T03:11:11;13.20;99.90
40670;DHT22;26355;45.528;9.234;2023-04-15T03:13:38;13.10;99.90
40670;DHT22;26355;45.528;9.234;2023-04-15T03:16:06;13.20;99.90
40670;DHT22;26355;45.528;9.234;2023-04-15T03:18:31;13.30;99.90
40670;DHT22;26355;45.528;9.234;2023-04-15T03:20:57;13.50;99.90
40670;DHT22;26355;45.528;9.234;2023-04-15T03:23:22;13.60;99.90
40670;DHT22;26355;45.528;9.234;2023-04-15T03:25:48;13.60;99.90
40670;DHT22;26355;45.528;9.234;2023-04-15T03:28:13;13.60;99.90
40670;DHT22;26355;45.528;9.234;2023-04-15T03:30:39;13.80;99.90
40670;DHT22;26355;45.528;9.234;2023-04-15T03:33:05;13.80;99.90
40670;DHT22;26355;45.528;9.234;2023-04-15T03:35:31;13.80;99.90
40670;DHT22;26355;45.528;9.234;2023-04-15T03:37:57;13.80;99.90
40670;DHT22;26355;45.528;9.234;2023-04-15T03:40:22;13.80;99.90
40670;DHT22;26355;45.528;9.234;2023-04-15T03:42:48;13.80;99.90
40670;DHT22;26355;45.528;9.234;2023-04-15T03:45:13;13.70;99.90
40670;DHT22;26355;45.528;9.234;2023-04-15T03:47:39;13.70;99.90
40670;DHT22;26355;45.528;9.234;2023-04-15T03:50:05;13.80;99.90
40670;DHT22;26355;45.528;9.234;2023-04-15T03:52:31;13.50;99.90
40670;DHT22;26355;45.528;9.234;2023-04-15T03:54:57;13.50;99.90
40670;DHT22;26355;45.528;9.234;2023-04-15T03:57:22;13.50;99.90
40670;DHT22;26355;45.528;9.234;2023-04-15T03:59:48;13.50;99.90
40670;DHT22;26355;45.528;9.234;2023-04-15T04:02:13;13.50;99.90
40670;DHT22;26355;45.528;9.234;2023-04-15T04:04:39;13.50;99.90
40670;DHT22;26355;45.528;9.234;2023-04-15T04:07:04;13.50;99.90
40670;DHT22;26355;45.528;9.234;2023-04-15T04:09:30;13.50;99.90
40670;DHT22;26355;45.528;9.234;2023-04-15T04:11:56;13.50;99.90
40670;DHT22;26355;45.528;9.234;2023-04-15T04:14:22;13.50;99.90
40670;DHT22;26355;45.528;9.234;2023-04-15T04:16:53;13.50;99.90
40670;DHT22;26355;45.528;9.234;2023-04-15T04:19:19;13.60;99.90
40670;DHT22;26355;45.528;9.234;2023-04-15T04:21:45;13.60;99.90
40670;DHT22;26355;45.528;9.234;2023-04-15T04:24:11;13.70;99.90
40670;DHT22;26355;45.528;9.234;2023-04-15T04:26:36;13.50;99.90
40670;DHT22;26355;45.528;9.234;2023-04-15T04:29:02;14.90;99.90
40670;DHT22;26355;45.528;9.234;2023-04-15T04:31:27;13.40;99.90
40670;DHT22;26355;45.528;9.234;2023-04-15T04:33:53;13.30;99.90
40670;DHT22;26355;45.528;9.234;2023-04-15T04:36:18;13.40;99.90
40670;DHT22;26355;45.528;9.234;2023-04-15T04:38:44;13.30;99.90
40670;DHT22;26355;45.528;9.234;2023-04-15T04:41:10;13.30;99.90
40670;DHT22;26355;45.528;9.234;2023-04-15T04:43:36;13.40;99.90
40670;DHT22;26355;45.528;9.234;2023-04-15T04:46:01;13.40;99.90
40670;DHT22;26355;45.528;9.234;2023-04-15T04:48:27;13.40;99.90
40670;DHT22;26355;45.528;9.234;2023-04-15T04:50:52;13.60;99.90
40670;DHT22;26355;45.528;9.234;2023-04-15T04:53:18;13.60;99.90
40670;DHT22;26355;45.528;9.234;2023-04-15T04:55:44;13.40;99.90
40670;DHT22;26355;45.528;9.234;2023-04-15T04:58:09;13.40;99.90
40670;DHT22;26355;45.528;9.234;2023-04-15T05:00:35;13.50;99.90
40670;DHT22;26355;45.528;9.234;2023-04-15T05:03:03;13.50;99.90
40670;DHT22;26355;45.528;9.234;2023-04-15T05:05:29;13.70;99.90
40670;DHT22;26355;45.528;9.234;2023-04-15T05:07:55;13.50;99.90
40670;DHT22;26355;45.528;9.234;2023-04-15T05:10:20;13.60;99.90
40670;DHT22;26355;45.528;9.234;2023-04-15T05:12:46;13.50;99.90
40670;DHT22;26355;45.528;9.234;2023-04-15T05:15:12;13.50;99.90
40670;DHT22;26355;45.528;9.234;2023-04-15T05:17:37;13.60;99.90
40670;DHT22;26355;45.528;9.234;2023-04-15T05:20:03;13.60;99.90
40670;DHT22;26355;45.528;9.234;2023-04-15T05:22:29;13.60;99.90
40670;DHT22;26355;45.528;9.234;2023-04-15T05:24:54;13.60;99.90
40670;DHT22;26355;45.528;9.234;2023-04-15T05:27:20;13.60;99.80
40670;DHT22;26355;45.528;9.234;2023-04-15T05:29:47;13.70;99.80
40670;DHT22;26355;45.528;9.234;2023-04-15T05:34:56;13.80;99.80
40670;DHT22;26355;45.528;9.234;2023-04-15T05:37:22;13.90;99.80
40670;DHT22;26355;45.528;9.234;2023-04-15T05:39:47;13.90;99.60
40670;DHT22;26355;45.528;9.234;2023-04-15T05:42:13;14.00;99.60
40670;DHT22;26355;45.528;9.234;2023-04-15T05:44:39;14.10;99.60
40670;DHT22;26355;45.528;9.234;2023-04-15T05:47:04;14.00;99.50
40670;DHT22;26355;45.528;9.234;2023-04-15T05:49:31;14.10;99.40
40670;DHT22;26355;45.528;9.234;2023-04-15T05:51:57;14.10;99.40
40670;DHT22;26355;45.528;9.234;2023-04-15T05:54:22;14.20;99.50
40670;DHT22;26355;45.528;9.234;2023-04-15T05:56:48;14.10;99.60
40670;DHT22;26355;45.528;9.234;2023-04-15T05:59:14;14.10;99.80
40670;DHT22;26355;45.528;9.234;2023-04-15T06:01:39;14.10;99.90
40670;DHT22;26355;45.528;9.234;2023-04-15T06:04:05;14.10;99.70
40670;DHT22;26355;45.528;9.234;2023-04-15T06:06:31;14.10;99.70
40670;DHT22;26355;45.528;9.234;2023-04-15T06:08:57;14.40;99.70
40670;DHT22;26355;45.528;9.234;2023-04-15T06:11:23;14.00;99.30
40670;DHT22;26355;45.528;9.234;2023-04-15T06:13:49;14.00;99.10
40670;DHT22;26355;45.528;9.234;2023-04-15T06:16:14;14.10;99.00
40670;DHT22;26355;45.528;9.234;2023-04-15T06:18:40;14.10;98.90
40670;DHT22;26355;45.528;9.234;2023-04-15T06:21:05;14.10;98.60
40670;DHT22;26355;45.528;9.234;2023-04-15T06:23:33;14.20;98.70
40670;DHT22;26355;45.528;9.234;2023-04-15T06:25:59;14.40;98.50
40670;DHT22;26355;45.528;9.234;2023-04-15T06:28:25;14.10;98.50
40670;DHT22;26355;45.528;9.234;2023-04-15T06:30:52;14.10;98.50
40670;DHT22;26355;45.528;9.234;2023-04-15T06:33:18;14.30;98.40
40670;DHT22;26355;45.528;9.234;2023-04-15T06:35:43;14.10;98.10
40670;DHT22;26355;45.528;9.234;2023-04-15T06:38:09;14.20;97.90
40670;DHT22;26355;45.528;9.234;2023-04-15T06:40:34;14.20;97.50
40670;DHT22;26355;45.528;9.234;2023-04-15T06:43:00;14.30;97.30
40670;DHT22;26355;45.528;9.234;2023-04-15T06:45:26;14.20;96.70
40670;DHT22;26355;45.528;9.234;2023-04-15T06:47:51;14.30;96.30
40670;DHT22;26355;45.528;9.234;2023-04-15T06:50:17;14.30;96.00
40670;DHT22;26355;45.528;9.234;2023-04-15T06:52:43;14.20;95.30
40670;DHT22;26355;45.528;9.234;2023-04-15T06:55:08;14.10;95.10
40670;DHT22;26355;45.528;9.234;2023-04-15T06:57:34;13.90;95.30
40670;DHT22;26355;45.528;9.234;2023-04-15T07:00:00;14.00;95.50
40670;DHT22;26355;45.528;9.234;2023-04-15T07:02:26;14.00;96.10
40670;DHT22;26355;45.528;9.234;2023-04-15T07:04:51;14.00;97.00
40670;DHT22;26355;45.528;9.234;2023-04-15T07:07:17;13.90;97.80
40670;DHT22;26355;45.528;9.234;2023-04-15T07:09:43;13.80;98.70
40670;DHT22;26355;45.528;9.234;2023-04-15T07:12:09;13.70;99.30
40670;DHT22;26355;45.528;9.234;2023-04-15T07:14:34;13.70;99.30
40670;DHT22;26355;45.528;9.234;2023-04-15T07:17:00;13.80;99.90
40670;DHT22;26355;45.528;9.234;2023-04-15T07:19:26;14.00;99.90
40670;DHT22;26355;45.528;9.234;2023-04-15T07:21:52;13.70;99.90
40670;DHT22;26355;45.528;9.234;2023-04-15T07:24:18;13.60;99.90
40670;DHT22;26355;45.528;9.234;2023-04-15T07:26:45;13.70;99.90
40670;DHT22;26355;45.528;9.234;2023-04-15T07:29:10;14.50;99.90
40670;DHT22;26355;45.528;9.234;2023-04-15T07:31:36;13.90;99.90
40670;DHT22;26355;45.528;9.234;2023-04-15T07:34:02;14.10;99.90
40670;DHT22;26355;45.528;9.234;2023-04-15T07:36:29;14.00;99.90
40670;DHT22;26355;45.528;9.234;2023-04-15T07:38:55;13.80;99.90
40670;DHT22;26355;45.528;9.234;2023-04-15T07:41:22;13.90;99.90
40670;DHT22;26355;45.528;9.234;2023-04-15T07:43:48;14.00;99.90
40670;DHT22;26355;45.528;9.234;2023-04-15T07:46:14;14.30;99.90
40670;DHT22;26355;45.528;9.234;2023-04-15T07:48:40;14.30;99.90
40670;DHT22;26355;45.528;9.234;2023-04-15T07:51:07;14.10;99.90
40670;DHT22;26355;45.528;9.234;2023-04-15T07:53:32;14.30;99.90
40670;DHT22;26355;45.528;9.234;2023-04-15T07:55:58;14.50;99.90
40670;DHT22;26355;45.528;9.234;2023-04-15T07:58:24;14.80;99.90
40670;DHT22;26355;45.528;9.234;2023-04-15T08:00:50;14.80;99.90
40670;DHT22;26355;45.528;9.234;2023-04-15T08:03:16;14.90;99.90
40670;DHT22;26355;45.528;9.234;2023-04-15T08:05:41;15.00;99.90
40670;DHT22;26355;45.528;9.234;2023-04-15T08:08:07;14.90;99.90
40670;DHT22;26355;45.528;9.234;2023-04-15T08:10:33;15.60;99.90
40670;DHT22;26355;45.528;9.234;2023-04-15T08:12:58;14.90;99.90
40670;DHT22;26355;45.528;9.234;2023-04-15T08:15:24;15.00;99.90
40670;DHT22;26355;45.528;9.234;2023-04-15T08:17:50;15.10;99.90
40670;DHT22;26355;45.528;9.234;2023-04-15T08:20:16;15.30;99.90
40670;DHT22;26355;45.528;9.234;2023-04-15T08:22:42;15.30;99.90
40670;DHT22;26355;45.528;9.234;2023-04-15T08:25:08;15.20;99.90
40670;DHT22;26355;45.528;9.234;2023-04-15T08:27:34;15.50;99.90
40670;DHT22;26355;45.528;9.234;2023-04-15T08:30:00;15.50;99.90
40670;DHT22;26355;45.528;9.234;2023-04-15T08:32:26;15.60;99.90
40670;DHT22;26355;45.528;9.234;2023-04-15T08:34:51;15.80;99.90
40670;DHT22;26355;45.528;9.234;2023-04-15T08:37:17;15.70;99.90
40670;DHT22;26355;45.528;9.234;2023-04-15T08:39:44;15.90;99.90
40670;DHT22;26355;45.528;9.234;2023-04-15T08:42:16;16.10;99.90
40670;DHT22;26355;45.528;9.234;2023-04-15T08:44:45;16.20;99.90
40670;DHT22;26355;45.528;9.234;2023-04-15T08:47:13;16.40;99.90
40670;DHT22;26355;45.528;9.234;2023-04-15T08:49:42;16.40;99.90
40670;DHT22;26355;45.528;9.234;2023-04-15T08:52:08;16.60;99.90
40670;DHT22;26355;45.528;9.234;2023-04-15T08:54:34;16.60;99.90
40670;DHT22;26355;45.528;9.234;2023-04-15T08:57:00;16.60;99.90
40670;DHT22;26355;45.528;9.234;2023-04-15T08:59:29;16.70;99.90
40670;DHT22;26355;45.528;9.234;2023-04-15T09:01:56;16.80;99.90
40670;DHT22;26355;45.528;9.234;2023-04-15T09:04:22;16.90;99.90
40670;DHT22;26355;45.528;9.234;2023-04-15T09:06:48;17.00;99.90
40670;DHT22;26355;45.528;9.234;2023-04-15T09:09:13;17.00;99.90
40670;DHT22;26355;45.528;9.234;2023-04-15T09:11:39;17.10;99.90
40670;DHT22;26355;45.528;9.234;2023-04-15T09:14:23;17.10;99.90
40670;DHT22;26355;45.528;9.234;2023-04-15T09:19:23;17.00;99.30
40670;DHT22;26355;45.528;9.234;2023-04-15T09:21:50;17.20;99.00
40670;DHT22;26355;45.528;9.234;2023-04-15T09:24:16;17.10;98.90
40670;DHT22;26355;45.528;9.234;2023-04-15T09:26:42;17.10;99.10
40670;DHT22;26355;45.528;9.234;2023-04-15T09:29:09;17.10;99.20
40670;DHT22;26355;45.528;9.234;2023-04-15T09:31:39;17.20;99.20
40670;DHT22;26355;45.528;9.234;2023-04-15T09:34:05;17.40;99.00
40670;DHT22;26355;45.528;9.234;2023-04-15T09:39:12;17.60;98.00
40670;DHT22;26355;45.528;9.234;2023-04-15T09:41:38;17.70;98.50
40670;DHT22;26355;45.528;9.234;2023-04-15T09:44:05;17.80;98.40
40670;DHT22;26355;45.528;9.234;2023-04-15T09:46:43;17.90;98.30
40670;DHT22;26355;45.528;9.234;2023-04-15T09:49:10;17.80;98.00
40670;DHT22;26355;45.528;9.234;2023-04-15T09:51:37;17.90;98.00
40670;DHT22;26355;45.528;9.234;2023-04-15T09:54:03;17.70;98.00
40670;DHT22;26355;45.528;9.234;2023-04-15T09:56:36;17.80;97.90
40670;DHT22;26355;45.528;9.234;2023-04-15T09:59:06;18.00;98.50
40670;DHT22;26355;45.528;9.234;2023-04-15T10:01:32;18.20;98.10
40670;DHT22;26355;45.528;9.234;2023-04-15T10:03:57;18.50;97.80
40670;DHT22;26355;45.528;9.234;2023-04-15T10:06:25;18.50;97.50
40670;DHT22;26355;45.528;9.234;2023-04-15T10:08:51;18.50;97.30
40670;DHT22;26355;45.528;9.234;2023-04-15T10:11:19;18.60;97.20
40670;DHT22;26355;45.528;9.234;2023-04-15T10:13:46;18.60;97.00
40670;DHT22;26355;45.528;9.234;2023-04-15T10:16:14;18.50;97.00
40670;DHT22;26355;45.528;9.234;2023-04-15T10:18:51;18.50;96.90
40670;DHT22;26355;45.528;9.234;2023-04-15T10:21:20;18.60;97.10
40670;DHT22;26355;45.528;9.234;2023-04-15T10:23:47;18.60;97.00
40670;DHT22;26355;45.528;9.234;2023-04-15T10:26:13;18.70;96.90
40670;DHT22;26355;45.528;9.234;2023-04-15T10:28:40;18.80;96.90
40670;DHT22;26355;45.528;9.234;2023-04-15T10:31:06;18.90;96.80
40670;DHT22;26355;45.528;9.234;2023-04-15T10:33:32;18.90;96.50
40670;DHT22;26355;45.528;9.234;2023-04-15T10:35:59;19.10;96.20
40670;DHT22;26355;45.528;9.234;2023-04-15T10:41:26;19.00;95.60
40670;DHT22;26355;45.528;9.234;2023-04-15T10:46:41;19.10;96.00
40670;DHT22;26355;45.528;9.234;2023-04-15T10:49:09;19.00;95.50
40670;DHT22;26355;45.528;9.234;2023-04-15T10:51:37;19.10;95.90
40670;DHT22;26355;45.528;9.234;2023-04-15T10:54:11;19.40;95.90
40670;DHT22;26355;45.528;9.234;2023-04-15T10:56:40;19.40;95.20
40670;DHT22;26355;45.528;9.234;2023-04-15T10:59:05;19.50;95.10
40670;DHT22;26355;45.528;9.234;2023-04-15T11:01:54;18.90;94.70
40670;DHT22;26355;45.528;9.234;2023-04-15T11:04:52;18.90;95.00
40670;DHT22;26355;45.528;9.234;2023-04-15T11:13:14;19.40;94.50
40670;DHT22;26355;45.528;9.234;2023-04-15T11:15:43;19.70;94.50
40670;DHT22;26355;45.528;9.234;2023-04-15T11:18:22;19.80;94.60
40670;DHT22;26355;45.528;9.234;2023-04-15T11:20:51;19.80;94.30
40670;DHT22;26355;45.528;9.234;2023-04-15T11:23:18;19.70;94.00
40670;DHT22;26355;45.528;9.234;2023-04-15T11:25:44;19.80;94.10
40670;DHT22;26355;45.528;9.234;2023-04-15T11:28:11;19.90;94.50
40670;DHT22;26355;45.528;9.234;2023-04-15T11:30:38;20.00;94.10
40670;DHT22;26355;45.528;9.234;2023-04-15T11:33:05;20.00;93.50
40670;DHT22;26355;45.528;9.234;2023-04-15T11:35:31;20.00;93.00
40670;DHT22;26355;45.528;9.234;2023-04-15T11:37:57;19.50;93.20
40670;DHT22;26355;45.528;9.234;2023-04-15T11:40:28;19.60;93.30
40670;DHT22;26355;45.528;9.234;2023-04-15T11:43:13;19.60;93.20
40670;DHT22;26355;45.528;9.234;2023-04-15T11:45:59;19.50;93.30
40670;DHT22;26355;45.528;9.234;2023-04-15T11:48:30;19.60;92.80
40670;DHT22;26355;45.528;9.234;2023-04-15T11:51:06;19.60;93.00
40670;DHT22;26355;45.528;9.234;2023-04-15T11:53:42;19.50;93.30
40670;DHT22;26355;45.528;9.234;2023-04-15T11:56:10;19.60;93.10
40670;DHT22;26355;45.528;9.234;2023-04-15T11:58:37;19.40;93.30
40670;DHT22;26355;45.528;9.234;2023-04-15T12:01:03;19.50;93.40
40670;DHT22;26355;45.528;9.234;2023-04-15T12:03:31;19.70;93.60
40670;DHT22;26355;45.528;9.234;2023-04-15T12:06:19;19.80;93.80
40670;DHT22;26355;45.528;9.234;2023-04-15T12:13:54;19.60;93.00
40670;DHT22;26355;45.528;9.234;2023-04-15T12:16:21;19.50;93.10
40670;DHT22;26355;45.528;9.234;2023-04-15T12:18:54;19.50;93.20
40670;DHT22;26355;45.528;9.234;2023-04-15T12:21:25;19.60;93.20
40670;DHT22;26355;45.528;9.234;2023-04-15T12:23:54;19.80;93.00
40670;DHT22;26355;45.528;9.234;2023-04-15T12:26:32;19.80;93.10
40670;DHT22;26355;45.528;9.234;2023-04-15T12:29:06;19.80;92.60
40670;DHT22;26355;45.528;9.234;2023-04-15T12:31:35;20.00;92.90
40670;DHT22;26355;45.528;9.234;2023-04-15T12:34:02;20.20;92.90
40670;DHT22;26355;45.528;9.234;2023-04-15T12:36:29;20.20;93.40
40670;DHT22;26355;45.528;9.234;2023-04-15T12:39:01;20.20;93.30
40670;DHT22;26355;45.528;9.234;2023-04-15T12:41:27;20.10;92.80
40670;DHT22;26355;45.528;9.234;2023-04-15T12:43:53;20.20;92.70
40670;DHT22;26355;45.528;9.234;2023-04-15T12:46:18;20.20;92.20
40670;DHT22;26355;45.528;9.234;2023-04-15T12:48:44;20.00;92.70
40670;DHT22;26355;45.528;9.234;2023-04-15T12:51:10;19.90;92.80
40670;DHT22;26355;45.528;9.234;2023-04-15T12:53:36;20.10;92.80
40670;DHT22;26355;45.528;9.234;2023-04-15T12:56:01;20.30;92.80
40670;DHT22;26355;45.528;9.234;2023-04-15T12:58:27;20.30;92.70
40670;DHT22;26355;45.528;9.234;2023-04-15T13:00:53;20.30;92.80
40670;DHT22;26355;45.528;9.234;2023-04-15T13:03:18;20.40;93.10
40670;DHT22;26355;45.528;9.234;2023-04-15T13:05:44;20.50;93.00
40670;DHT22;26355;45.528;9.234;2023-04-15T13:08:10;20.60;92.40
40670;DHT22;26355;45.528;9.234;2023-04-15T13:10:35;20.60;92.40
40670;DHT22;26355;45.528;9.234;2023-04-15T13:13:02;20.50;91.70
40670;DHT22;26355;45.528;9.234;2023-04-15T13:15:28;20.40;92.20
40670;DHT22;26355;45.528;9.234;2023-04-15T13:17:54;20.40;92.10
40670;DHT22;26355;45.528;9.234;2023-04-15T13:20:19;20.40;92.00
40670;DHT22;26355;45.528;9.234;2023-04-15T13:22:45;20.40;91.80
40670;DHT22;26355;45.528;9.234;2023-04-15T13:25:11;20.50;91.60
40670;DHT22;26355;45.528;9.234;2023-04-15T13:27:36;20.40;91.70
40670;DHT22;26355;45.528;9.234;2023-04-15T13:30:03;20.50;91.50
40670;DHT22;26355;45.528;9.234;2023-04-15T13:32:29;20.50;91.40
40670;DHT22;26355;45.528;9.234;2023-04-15T13:34:55;20.60;91.40
40670;DHT22;26355;45.528;9.234;2023-04-15T13:37:25;20.60;91.20
40670;DHT22;26355;45.528;9.234;2023-04-15T13:39:51;20.60;91.00
40670;DHT22;26355;45.528;9.234;2023-04-15T13:42:16;20.70;91.20
40670;DHT22;26355;45.528;9.234;2023-04-15T13:44:42;20.50;91.10
40670;DHT22;26355;45.528;9.234;2023-04-15T13:47:07;20.50;91.00
40670;DHT22;26355;45.528;9.234;2023-04-15T13:49:52;20.50;90.60
40670;DHT22;26355;45.528;9.234;2023-04-15T13:52:18;20.60;90.80
40670;DHT22;26355;45.528;9.234;2023-04-15T13:54:44;20.50;90.80
40670;DHT22;26355;45.528;9.234;2023-04-15T13:57:09;20.30;90.90
40670;DHT22;26355;45.528;9.234;2023-04-15T13:59:35;20.30;90.90
40670;DHT22;26355;45.528;9.234;2023-04-15T14:02:01;20.20;90.80
40670;DHT22;26355;45.528;9.234;2023-04-15T14:04:26;19.80;90.60
40670;DHT22;26355;45.528;9.234;2023-04-15T14:06:52;20.30;90.60
40670;DHT22;26355;45.528;9.234;2023-04-15T14:09:18;20.40;90.80
40670;DHT22;26355;45.528;9.234;2023-04-15T14:11:43;20.40;90.90
40670;DHT22;26355;45.528;9.234;2023-04-15T14:14:09;20.40;90.70
40670;DHT22;26355;45.528;9.234;2023-04-15T14:16:35;20.40;90.70
40670;DHT22;26355;45.528;9.234;2023-04-15T14:19:01;20.50;90.60
40670;DHT22;26355;45.528;9.234;2023-04-15T14:21:27;20.40;90.30
40670;DHT22;26355;45.528;9.234;2023-04-15T14:23:53;20.50;90.30
40670;DHT22;26355;45.528;9.234;2023-04-15T14:26:19;20.40;90.20
40670;DHT22;26355;45.528;9.234;2023-04-15T14:28:45;20.50;90.30
40670;DHT22;26355;45.528;9.234;2023-04-15T14:31:10;20.50;90.00
40670;DHT22;26355;45.528;9.234;2023-04-15T14:33:36;20.30;90.00
40670;DHT22;26355;45.528;9.234;2023-04-15T14:36:01;20.20;90.20
40670;DHT22;26355;45.528;9.234;2023-04-15T14:38:27;20.10;90.20
40670;DHT22;26355;45.528;9.234;2023-04-15T14:40:53;20.10;90.40
40670;DHT22;26355;45.528;9.234;2023-04-15T14:43:19;20.00;90.30
40670;DHT22;26355;45.528;9.234;2023-04-15T14:45:45;20.10;90.50
40670;DHT22;26355;45.528;9.234;2023-04-15T14:48:11;20.10;90.40
40670;DHT22;26355;45.528;9.234;2023-04-15T14:50:37;20.20;90.80
40670;DHT22;26355;45.528;9.234;2023-04-15T14:53:03;20.10;91.00
40670;DHT22;26355;45.528;9.234;2023-04-15T14:55:28;20.10;91.20
40670;DHT22;26355;45.528;9.234;2023-04-15T14:57:54;19.90;91.20
40670;DHT22;26355;45.528;9.234;2023-04-15T15:00:20;20.00;91.20
40670;DHT22;26355;45.528;9.234;2023-04-15T15:02:45;20.00;91.30
40670;DHT22;26355;45.528;9.234;2023-04-15T15:05:13;20.00;91.10
40670;DHT22;26355;45.528;9.234;2023-04-15T15:07:40;19.80;91.10
40670;DHT22;26355;45.528;9.234;2023-04-15T15:10:06;19.80;91.10
40670;DHT22;26355;45.528;9.234;2023-04-15T15:12:32;19.70;91.10
40670;DHT22;26355;45.528;9.234;2023-04-15T15:14:58;19.60;91.20
40670;DHT22;26355;45.528;9.234;2023-04-15T15:17:23;19.70;91.10
40670;DHT22;26355;45.528;9.234;2023-04-15T15:19:49;19.80;91.20
40670;DHT22;26355;45.528;9.234;2023-04-15T15:22:15;19.90;91.10
40670;DHT22;26355;45.528;9.234;2023-04-15T15:24:41;19.90;91.00
40670;DHT22;26355;45.528;9.234;2023-04-15T15:27:06;19.90;91.00
40670;DHT22;26355;45.528;9.234;2023-04-15T15:29:32;19.70;91.10
40670;DHT22;26355;45.528;9.234;2023-04-15T15:31:58;19.70;91.20
40670;DHT22;26355;45.528;9.234;2023-04-15T15:34:23;19.70;91.30
40670;DHT22;26355;45.528;9.234;2023-04-15T15:36:49;19.70;91.30
40670;DHT22;26355;45.528;9.234;2023-04-15T15:39:15;19.70;91.20
40670;DHT22;26355;45.528;9.234;2023-04-15T15:41:41;19.70;91.10
40670;DHT22;26355;45.528;9.234;2023-04-15T15:44:06;19.90;91.10
40670;DHT22;26355;45.528;9.234;2023-04-15T15:46:32;19.80;91.00
40670;DHT22;26355;45.528;9.234;2023-04-15T15:48:57;19.90;91.10
40670;DHT22;26355;45.528;9.234;2023-04-15T15:51:23;19.90;90.70